Time,TemperatureF,DewpointF,PressureIn,WindDirection,WindDirectionDegrees,WindSpeedMPH,WindSpeedGustMPH,Humidity,HourlyPrecipIn,Conditions,Clouds,dailyrainin,SoftwareType,DateUTC
2013-03-10 00:02:00,41.5,36.5,29.94,SW,216,0.0,0.0,82,0.00,,,0.00,meteohub,2013-03-10 05:02:00,
2013-03-10 00:07:00,41.7,37.2,29.94,WSW,238,0.0,1.0,84,0.00,,,0.00,meteohub,2013-03-10 05:07:00,
2013-03-10 00:12:00,42.3,37.8,29.94,WSW,245,0.0,2.0,84,0.00,,,0.00,meteohub,2013-03-10 05:12:00,
2013-03-10 00:17:00,42.1,36.7,29.94,WSW,243,0.0,2.0,81,0.00,,,0.00,meteohub,2013-03-10 05:17:00,
2013-03-10 00:22:00,42.3,37.4,29.94,WNW,295,1.0,2.0,83,0.00,,,0.00,meteohub,2013-03-10 05:22:00,
2013-03-10 00:27:00,42.3,37.8,29.94,WSW,241,1.0,3.0,84,0.00,,,0.00,meteohub,2013-03-10 05:27:00,
2013-03-10 00:32:00,41.9,37.4,29.94,WSW,238,1.0,3.0,84,0.00,,,0.00,meteohub,2013-03-10 05:32:00,
2013-03-10 00:37:00,41.5,37.0,29.94,SSW,210,0.0,3.0,84,0.00,,,0.00,meteohub,2013-03-10 05:37:00,
2013-03-10 00:42:00,41.4,37.2,29.94,South,187,0.0,2.0,85,0.00,,,0.00,meteohub,2013-03-10 05:42:00,
2013-03-10 00:47:00,41.4,37.2,29.93,SSW,211,0.0,2.0,85,0.00,,,0.00,meteohub,2013-03-10 05:47:00,
2013-03-10 00:52:00,41.7,37.8,29.93,SW,219,0.0,2.0,86,0.00,,,0.00,meteohub,2013-03-10 05:52:00,
2013-03-10 00:57:00,42.3,38.1,29.93,SW,214,0.0,4.0,85,0.00,,,0.00,meteohub,2013-03-10 05:57:00,
2013-03-10 01:02:00,43.3,38.5,29.93,SSE,166,0.0,4.0,83,0.00,,,0.00,meteohub,2013-03-10 06:02:00,
2013-03-10 01:07:00,45.9,38.7,29.93,NE,49,0.0,4.0,76,0.00,,,0.00,meteohub,2013-03-10 06:07:00,
2013-03-10 01:12:00,47.7,37.9,29.93,NNE,32,2.0,4.0,69,0.00,,,0.00,meteohub,2013-03-10 06:12:00,
2013-03-10 01:17:00,49.6,37.6,29.93,ESE,110,0.0,4.0,63,0.00,,,0.00,meteohub,2013-03-10 06:17:00,
2013-03-10 01:22:00,51.3,38.3,29.93,ENE,63,0.0,5.0,61,0.00,,,0.00,meteohub,2013-03-10 06:22:00,
2013-03-10 01:27:00,52.5,38.1,29.93,NE,52,1.0,5.0,58,0.00,,,0.00,meteohub,2013-03-10 06:27:00,
2013-03-10 01:32:00,53.2,37.9,29.93,WNW,282,0.0,5.0,56,0.00,,,0.00,meteohub,2013-03-10 06:32:00,
2013-03-10 01:37:00,53.1,37.8,29.93,SE,142,4.0,5.0,56,0.00,,,0.00,meteohub,2013-03-10 06:37:00,
2013-03-10 01:42:00,53.1,37.8,29.93,SE,124,1.0,5.0,56,0.00,,,0.00,meteohub,2013-03-10 06:42:00,
2013-03-10 01:47:00,53.2,37.0,29.93,SE,136,1.0,4.0,54,0.00,,,0.00,meteohub,2013-03-10 06:47:00,
2013-03-10 01:52:00,53.4,37.6,29.94,WSW,252,1.0,4.0,55,0.00,,,0.00,meteohub,2013-03-10 06:52:00,
2013-03-10 01:57:00,52.9,37.6,29.93,ESE,121,1.0,4.0,56,0.00,,,0.00,meteohub,2013-03-10 06:57:00,
2013-03-10 03:02:00,52.3,37.0,29.93,South,170,1.0,-999.0,56,-99.99,,,0.00,meteohub,2013-03-10 07:02:00,
2013-03-10 03:07:00,51.4,36.7,29.93,SSW,194,1.0,-999.0,57,-99.99,,,0.00,meteohub,2013-03-10 07:07:00,
2013-03-10 03:12:00,49.8,36.1,29.93,SW,223,0.0,-999.0,59,-99.99,,,0.00,meteohub,2013-03-10 07:12:00,
2013-03-10 03:17:00,49.6,36.7,29.93,SSE,165,1.0,-999.0,61,-99.99,,,0.00,meteohub,2013-03-10 07:17:00,
2013-03-10 03:22:00,49.5,36.5,29.93,SSW,194,0.0,-999.0,61,-99.99,,,0.00,meteohub,2013-03-10 07:22:00,
2013-03-10 03:27:00,49.3,37.2,29.92,SE,141,0.0,-999.0,63,-99.99,,,0.00,meteohub,2013-03-10 07:27:00,
2013-03-10 03:32:00,48.9,36.9,29.92,SSW,199,0.0,-999.0,63,-99.99,,,0.00,meteohub,2013-03-10 07:32:00,
2013-03-10 03:37:00,48.6,36.9,29.92,SSW,210,0.0,-999.0,64,-99.99,,,0.00,meteohub,2013-03-10 07:37:00,
2013-03-10 03:42:00,48.4,36.7,29.91,SE,143,0.0,-999.0,64,-99.99,,,0.00,meteohub,2013-03-10 07:42:00,
2013-03-10 03:47:00,47.8,37.0,29.91,ENE,58,2.0,-999.0,66,-99.99,,,0.00,meteohub,2013-03-10 07:47:00,
2013-03-10 03:52:00,49.3,37.2,29.91,NE,46,3.0,-999.0,63,-99.99,,,0.00,meteohub,2013-03-10 07:52:00,
2013-03-10 03:57:00,50.2,37.6,29.91,SSE,155,0.0,-999.0,62,-99.99,,,0.00,meteohub,2013-03-10 07:57:00,
2013-03-10 04:02:00,49.6,37.2,29.90,SSE,168,0.0,-999.0,62,-99.99,,,0.00,meteohub,2013-03-10 08:02:00,
2013-03-10 04:07:00,49.3,36.9,29.90,NNW,342,2.0,-999.0,62,-99.99,,,0.00,meteohub,2013-03-10 08:07:00,
2013-03-10 04:12:00,49.6,36.7,29.90,WSW,239,1.0,-999.0,61,-99.99,,,0.00,meteohub,2013-03-10 08:12:00,
2013-03-10 04:17:00,49.5,37.0,29.90,SSE,162,1.0,-999.0,62,-99.99,,,0.00,meteohub,2013-03-10 08:17:00,
2013-03-10 04:22:00,49.6,36.7,29.90,ESE,103,0.0,-999.0,61,-99.99,,,0.00,meteohub,2013-03-10 08:22:00,
2013-03-10 04:27:00,50.4,37.0,29.90,SE,146,1.0,-999.0,60,-99.99,,,0.00,meteohub,2013-03-10 08:27:00,
2013-03-10 04:32:00,50.5,36.7,29.90,SW,231,0.0,-999.0,59,-99.99,,,0.00,meteohub,2013-03-10 08:32:00,
2013-03-10 04:37:00,50.7,36.9,29.90,SSE,153,1.0,-999.0,59,-99.99,,,0.00,meteohub,2013-03-10 08:37:00,
2013-03-10 04:42:00,50.7,36.9,29.90,SW,226,0.0,-999.0,59,-99.99,,,0.00,meteohub,2013-03-10 08:42:00,
2013-03-10 04:47:00,51.1,37.8,29.90,SSW,199,0.0,-999.0,60,-99.99,,,0.00,meteohub,2013-03-10 08:47:00,
2013-03-10 04:52:00,50.4,36.5,29.90,SW,230,1.0,-999.0,59,-99.99,,,0.00,meteohub,2013-03-10 08:52:00,
2013-03-10 05:02:00,48.6,36.1,29.90,ESE,122,1.0,-999.0,62,-99.99,,,0.00,meteohub,2013-03-10 09:02:00,
2013-03-10 05:07:00,48.7,36.3,29.90,SSW,212,1.0,-999.0,62,-99.99,,,0.00,meteohub,2013-03-10 09:07:00,
2013-03-10 05:12:00,48.6,36.5,29.90,SE,126,0.0,-999.0,63,-99.99,,,0.00,meteohub,2013-03-10 09:12:00,
2013-03-10 05:17:00,48.7,36.7,29.91,ESE,121,0.0,-999.0,63,-99.99,,,0.00,meteohub,2013-03-10 09:17:00,
2013-03-10 05:22:00,49.6,37.2,29.91,ESE,107,1.0,-999.0,62,-99.99,,,0.00,meteohub,2013-03-10 09:22:00,
2013-03-10 05:27:00,50.0,36.3,29.90,ESE,109,0.0,-999.0,59,-99.99,,,0.00,meteohub,2013-03-10 09:27:00,
2013-03-10 05:32:00,51.1,36.9,29.90,ESE,113,0.0,-999.0,58,-99.99,,,0.00,meteohub,2013-03-10 09:32:00,
2013-03-10 05:37:00,51.3,36.1,29.91,ESE,122,1.0,-999.0,56,-99.99,,,0.00,meteohub,2013-03-10 09:37:00,
2013-03-10 05:42:00,51.8,36.7,29.91,SE,131,1.0,-999.0,56,-99.99,,,0.00,meteohub,2013-03-10 09:42:00,
2013-03-10 05:47:00,52.2,36.5,29.91,SSW,205,0.0,-999.0,55,-99.99,,,0.00,meteohub,2013-03-10 09:47:00,
2013-03-10 05:52:00,52.0,35.8,29.91,ESE,118,0.0,-999.0,54,-99.99,,,0.00,meteohub,2013-03-10 09:52:00,
2013-03-10 05:57:00,52.3,36.1,29.91,SE,146,0.0,-999.0,54,-99.99,,,0.00,meteohub,2013-03-10 09:57:00,
2013-03-10 06:02:00,52.2,36.0,29.91,ESE,103,1.0,-999.0,54,-99.99,,,0.00,meteohub,2013-03-10 10:02:00,
2013-03-10 06:07:00,52.9,36.1,29.91,East,96,1.0,-999.0,53,-99.99,,,0.00,meteohub,2013-03-10 10:07:00,
2013-03-10 06:12:00,53.1,36.0,29.92,East,100,0.0,-999.0,52,-99.99,,,0.00,meteohub,2013-03-10 10:12:00,
2013-03-10 06:17:00,53.2,35.6,29.92,South,183,0.0,-999.0,51,-99.99,,,0.00,meteohub,2013-03-10 10:17:00,
2013-03-10 06:22:00,53.4,35.8,29.92,SE,131,2.0,-999.0,51,-99.99,,,0.00,meteohub,2013-03-10 10:22:00,
2013-03-10 06:27:00,53.2,35.6,29.92,West,271,0.0,-999.0,51,-99.99,,,0.00,meteohub,2013-03-10 10:27:00,
2013-03-10 06:32:00,53.2,36.5,29.92,SSE,168,1.0,-999.0,53,-99.99,,,0.00,meteohub,2013-03-10 10:32:00,
2013-03-10 06:37:00,53.2,37.0,29.92,SE,139,0.0,-999.0,54,-99.99,,,0.00,meteohub,2013-03-10 10:37:00,
2013-03-10 06:42:00,53.1,36.0,29.92,North,356,0.0,-999.0,52,-99.99,,,0.00,meteohub,2013-03-10 10:42:00,
2013-03-10 06:47:00,53.1,36.3,29.92,SSE,152,0.0,-999.0,53,-99.99,,,0.00,meteohub,2013-03-10 10:47:00,
2013-03-10 06:52:00,53.1,36.3,29.92,West,271,3.0,-999.0,53,-99.99,,,0.00,meteohub,2013-03-10 10:52:00,
2013-03-10 06:57:00,52.9,36.7,29.92,SSW,208,2.0,-999.0,54,-99.99,,,0.00,meteohub,2013-03-10 10:57:00,
2013-03-10 07:02:00,52.3,36.1,29.92,NE,52,2.0,-999.0,54,-99.99,,,0.00,meteohub,2013-03-10 11:02:00,
2013-03-10 07:07:00,52.5,35.4,29.92,ESE,103,1.0,-999.0,52,-99.99,,,0.00,meteohub,2013-03-10 11:07:00,
2013-03-10 07:12:00,53.2,35.6,29.92,East,96,0.0,-999.0,51,-99.99,,,0.00,meteohub,2013-03-10 11:12:00,
2013-03-10 07:17:00,53.4,35.8,29.92,SE,126,1.0,6.0,51,-99.99,,,0.00,meteohub,2013-03-10 11:17:00,
2013-03-10 07:22:00,52.9,35.8,29.92,SSE,149,0.0,6.0,52,-99.99,,,0.00,meteohub,2013-03-10 11:22:00,
2013-03-10 07:27:00,52.9,35.8,29.92,SSW,201,1.0,6.0,52,-99.99,,,0.00,meteohub,2013-03-10 11:27:00,
2013-03-10 07:32:00,52.7,35.6,29.93,East,93,0.0,2.0,52,-99.99,,,0.00,meteohub,2013-03-10 11:32:00,
2013-03-10 07:37:00,52.7,36.5,29.93,SE,132,0.0,4.0,54,-99.99,,,0.00,meteohub,2013-03-10 11:37:00,
2013-03-10 07:42:00,52.3,36.7,29.93,SSE,167,0.0,4.0,55,-99.99,,,0.00,meteohub,2013-03-10 11:42:00,
2013-03-10 07:47:00,52.5,36.0,29.92,SE,144,0.0,4.0,53,-99.99,,,0.00,meteohub,2013-03-10 11:47:00,
2013-03-10 07:52:00,52.5,36.0,29.93,ENE,63,1.0,2.0,53,-99.99,,,0.00,meteohub,2013-03-10 11:52:00,
2013-03-10 07:57:00,52.5,36.0,29.93,East,89,1.0,3.0,53,-99.99,,,0.00,meteohub,2013-03-10 11:57:00,
2013-03-10 08:02:00,52.5,36.0,29.93,SSE,162,0.0,5.0,53,0.00,,,0.00,meteohub,2013-03-10 12:02:00,
2013-03-10 08:07:00,52.0,36.3,29.93,WSW,252,0.0,5.0,55,0.00,,,0.00,meteohub,2013-03-10 12:07:00,
2013-03-10 08:12:00,52.3,36.1,29.93,SSE,162,2.0,5.0,54,0.00,,,0.00,meteohub,2013-03-10 12:12:00,
2013-03-10 08:17:00,51.6,36.0,29.93,South,188,0.0,5.0,55,0.00,,,0.00,meteohub,2013-03-10 12:17:00,
2013-03-10 08:22:00,51.4,35.8,29.93,WSW,246,3.0,4.0,55,0.00,,,0.00,meteohub,2013-03-10 12:22:00,
2013-03-10 08:27:00,51.6,36.9,29.94,East,79,1.0,3.0,57,0.00,,,0.00,meteohub,2013-03-10 12:27:00,
2013-03-10 08:32:00,51.6,35.6,29.94,SSE,165,0.0,3.0,54,0.00,,,0.00,meteohub,2013-03-10 12:32:00,
2013-03-10 08:37:00,51.1,36.3,29.94,WSW,239,0.0,3.0,57,0.00,,,0.00,meteohub,2013-03-10 12:37:00,
2013-03-10 08:42:00,50.7,36.0,29.94,South,170,0.0,4.0,57,0.00,,,0.00,meteohub,2013-03-10 12:42:00,
2013-03-10 08:47:00,50.5,36.3,29.94,ENE,63,0.0,4.0,58,0.00,,,0.00,meteohub,2013-03-10 12:47:00,
2013-03-10 08:52:00,51.1,37.2,29.94,NNE,20,2.0,4.0,59,0.00,,,0.00,meteohub,2013-03-10 12:52:00,
2013-03-10 08:57:00,51.3,36.1,29.94,ENE,62,3.0,3.0,56,0.00,,,0.00,meteohub,2013-03-10 12:57:00,
2013-03-10 09:02:00,52.7,36.5,29.93,SE,135,0.0,4.0,54,0.00,,,0.00,meteohub,2013-03-10 13:02:00,
2013-03-10 09:07:00,53.4,36.7,29.93,NE,35,1.0,4.0,53,0.00,,,0.00,meteohub,2013-03-10 13:07:00,
2013-03-10 09:12:00,53.6,36.3,29.93,East,86,3.0,5.0,52,0.00,,,0.00,meteohub,2013-03-10 13:12:00,
2013-03-10 09:17:00,53.8,37.0,29.93,SSE,151,3.0,6.0,53,0.00,,,0.00,meteohub,2013-03-10 13:17:00,
2013-03-10 09:22:00,54.1,36.3,29.93,SW,236,2.0,7.0,51,0.00,,,0.00,meteohub,2013-03-10 13:22:00,
2013-03-10 09:32:00,54.7,36.3,29.92,South,190,1.0,7.0,50,0.00,,,0.00,meteohub,2013-03-10 13:32:00,
2013-03-10 09:37:00,55.0,36.7,29.93,SE,127,1.0,6.0,50,0.00,,,0.00,meteohub,2013-03-10 13:37:00,
2013-03-10 09:42:00,55.0,36.7,29.93,North,4,0.0,6.0,50,0.00,,,0.00,meteohub,2013-03-10 13:42:00,
2013-03-10 09:47:00,55.2,36.3,29.93,SW,236,2.0,4.0,49,0.00,,,0.00,meteohub,2013-03-10 13:47:00,
2013-03-10 09:52:00,55.4,36.5,29.93,NNE,20,2.0,5.0,49,0.00,,,0.00,meteohub,2013-03-10 13:52:00,
2013-03-10 09:57:00,56.1,36.7,29.93,SSE,148,2.0,5.0,48,0.00,,,0.00,meteohub,2013-03-10 13:57:00,
2013-03-10 10:02:00,56.7,36.7,29.93,NW,313,2.0,7.0,47,0.00,,,0.00,meteohub,2013-03-10 14:02:00,
2013-03-10 10:07:00,57.4,36.7,29.92,SSW,203,5.0,10.0,46,0.00,,,0.00,meteohub,2013-03-10 14:07:00,
2013-03-10 10:12:00,57.9,36.7,29.92,SW,231,4.0,11.0,45,0.00,,,0.00,meteohub,2013-03-10 14:12:00,
2013-03-10 10:17:00,58.5,36.7,29.92,SSE,156,6.0,12.0,44,0.00,,,0.00,meteohub,2013-03-10 14:17:00,
2013-03-10 10:22:00,58.8,37.0,29.92,SW,217,7.0,13.0,44,0.00,,,0.00,meteohub,2013-03-10 14:22:00,
2013-03-10 10:32:00,59.4,36.3,29.92,SSE,149,10.0,12.0,42,0.00,,,0.00,meteohub,2013-03-10 14:32:00,
2013-03-10 10:37:00,59.2,36.7,29.92,SE,139,2.0,13.0,43,0.00,,,0.00,meteohub,2013-03-10 14:37:00,
2013-03-10 10:42:00,59.0,36.5,29.92,South,177,10.0,13.0,43,0.00,,,0.00,meteohub,2013-03-10 14:42:00,
2013-03-10 10:47:00,58.8,36.3,29.92,SSE,156,1.0,15.0,43,0.00,,,0.00,meteohub,2013-03-10 14:47:00,
2013-03-10 10:52:00,59.0,37.0,29.91,NNW,340,4.0,15.0,44,0.00,,,0.00,meteohub,2013-03-10 14:52:00,
2013-03-10 10:57:00,59.0,36.5,29.91,SE,142,2.0,15.0,43,0.00,,,0.00,meteohub,2013-03-10 14:57:00,
2013-03-10 11:02:00,59.0,37.0,29.91,SSW,208,4.0,17.0,44,0.00,,,0.00,meteohub,2013-03-10 15:02:00,
2013-03-10 11:07:00,59.4,36.9,29.91,NNW,339,2.0,17.0,43,0.00,,,0.00,meteohub,2013-03-10 15:07:00,
2013-03-10 11:12:00,59.5,37.0,29.91,SE,144,1.0,12.0,43,0.00,,,0.00,meteohub,2013-03-10 15:12:00,
2013-03-10 11:17:00,59.7,36.5,29.92,SSE,155,11.0,11.0,42,0.00,,,0.00,meteohub,2013-03-10 15:17:00,
2013-03-10 11:22:00,59.7,36.5,29.92,WSW,245,2.0,16.0,42,0.00,,,0.00,meteohub,2013-03-10 15:22:00,
2013-03-10 11:27:00,59.7,37.2,29.92,WSW,257,3.0,16.0,43,0.00,,,0.00,meteohub,2013-03-10 15:27:00,
2013-03-10 11:32:00,60.1,36.9,29.92,SW,224,6.0,17.0,42,0.00,,,0.00,meteohub,2013-03-10 15:32:00,
2013-03-10 11:37:00,60.3,37.0,29.92,West,267,5.0,19.0,42,0.00,,,0.00,meteohub,2013-03-10 15:37:00,
2013-03-10 11:42:00,60.4,37.2,29.93,SW,219,10.0,19.0,42,0.00,,,0.00,meteohub,2013-03-10 15:42:00,
2013-03-10 11:47:00,60.4,37.2,29.93,SSW,213,4.0,19.0,42,0.00,,,0.00,meteohub,2013-03-10 15:47:00,
2013-03-10 11:52:00,60.6,36.9,29.92,South,184,2.0,15.0,41,0.00,,,0.00,meteohub,2013-03-10 15:52:00,
2013-03-10 11:57:00,60.6,37.4,29.91,West,269,8.0,15.0,42,0.00,,,0.00,meteohub,2013-03-10 15:57:00,
2013-03-10 12:02:00,60.6,36.9,29.92,WNW,295,4.0,13.0,41,0.00,,,0.00,meteohub,2013-03-10 16:02:00,
2013-03-10 12:07:00,61.0,37.0,29.91,SE,144,9.0,15.0,41,0.00,,,0.00,meteohub,2013-03-10 16:07:00,
2013-03-10 12:12:00,61.2,37.2,29.91,South,187,8.0,15.0,41,0.00,,,0.00,meteohub,2013-03-10 16:12:00,
2013-03-10 12:17:00,61.5,37.0,29.90,SW,222,2.0,14.0,40,0.00,,,0.00,meteohub,2013-03-10 16:17:00,
2013-03-10 12:22:00,61.5,37.0,29.90,SW,222,7.0,14.0,40,0.00,,,0.00,meteohub,2013-03-10 16:22:00,
2013-03-10 12:32:00,61.9,36.7,29.90,SSW,200,7.0,14.0,39,0.00,,,0.00,meteohub,2013-03-10 16:32:00,
2013-03-10 12:37:00,61.7,37.2,29.90,South,172,8.0,19.0,40,0.00,,,0.00,meteohub,2013-03-10 16:37:00,
2013-03-10 12:42:00,61.7,37.2,29.90,SW,231,7.0,21.0,40,0.00,,,0.00,meteohub,2013-03-10 16:42:00,
2013-03-10 12:47:00,61.7,37.2,29.90,WSW,253,11.0,22.0,40,0.00,,,0.00,meteohub,2013-03-10 16:47:00,
2013-03-10 12:52:00,61.9,37.2,29.90,SW,224,3.0,22.0,40,0.00,,,0.00,meteohub,2013-03-10 16:52:00,
2013-03-10 12:57:00,62.1,36.9,29.90,WNW,283,2.0,22.0,39,0.00,,,0.00,meteohub,2013-03-10 16:57:00,
2013-03-10 13:02:00,62.1,36.9,29.90,WSW,245,6.0,14.0,39,0.00,,,0.00,meteohub,2013-03-10 17:02:00,
2013-03-10 13:07:00,62.2,37.0,29.90,SSE,163,1.0,14.0,39,0.00,,,0.00,meteohub,2013-03-10 17:07:00,
2013-03-10 13:12:00,62.6,37.2,29.89,WSW,240,12.0,13.0,39,0.00,,,0.00,meteohub,2013-03-10 17:12:00,
2013-03-10 13:17:00,62.8,36.9,29.89,SSW,211,2.0,17.0,38,0.00,,,0.00,meteohub,2013-03-10 17:17:00,
2013-03-10 13:22:00,63.0,37.0,29.89,South,173,10.0,17.0,38,0.00,,,0.00,meteohub,2013-03-10 17:22:00,
2013-03-10 13:27:00,63.0,37.0,29.89,SE,125,8.0,17.0,38,0.00,,,0.00,meteohub,2013-03-10 17:27:00,
2013-03-10 13:32:00,63.1,36.5,29.88,North,3,4.0,16.0,37,0.00,,,0.00,meteohub,2013-03-10 17:32:00,
2013-03-10 13:37:00,63.3,36.7,29.88,SSW,207,8.0,16.0,37,0.00,,,0.00,meteohub,2013-03-10 17:37:00,
2013-03-10 13:42:00,63.7,37.6,29.88,West,276,11.0,15.0,38,0.00,,,0.00,meteohub,2013-03-10 17:42:00,
2013-03-10 13:47:00,63.9,37.0,29.88,SW,236,11.0,15.0,37,0.00,,,0.00,meteohub,2013-03-10 17:47:00,
2013-03-10 13:52:00,63.7,36.9,29.87,SSW,207,5.0,19.0,37,0.00,,,0.00,meteohub,2013-03-10 17:52:00,
2013-03-10 13:57:00,64.0,38.7,29.87,SSE,166,1.0,19.0,39,0.00,,,0.00,meteohub,2013-03-10 17:57:00,
2013-03-10 14:02:00,64.0,37.2,29.87,SE,141,5.0,19.0,37,0.00,,,0.00,meteohub,2013-03-10 18:02:00,
2013-03-10 14:07:00,64.0,37.2,29.88,West,266,2.0,15.0,37,0.00,,,0.00,meteohub,2013-03-10 18:07:00,
2013-03-10 14:12:00,64.8,37.9,29.87,WSW,257,12.0,15.0,37,0.00,,,0.00,meteohub,2013-03-10 18:12:00,
2013-03-10 14:17:00,65.1,36.9,29.87,SW,235,14.0,15.0,35,0.00,,,0.00,meteohub,2013-03-10 18:17:00,
2013-03-10 14:22:00,65.5,37.0,29.87,SW,231,14.0,16.0,35,0.00,,,0.00,meteohub,2013-03-10 18:22:00,
2013-03-10 14:27:00,65.5,37.0,29.87,ENE,65,4.0,18.0,35,0.00,,,0.00,meteohub,2013-03-10 18:27:00,
2013-03-10 14:32:00,65.7,37.2,29.87,SE,136,4.0,18.0,35,0.00,,,0.00,meteohub,2013-03-10 18:32:00,
2013-03-10 14:37:00,65.8,36.7,29.86,SW,225,11.0,18.0,34,0.00,,,0.00,meteohub,2013-03-10 18:37:00,
2013-03-10 14:42:00,65.8,36.0,29.86,South,191,5.0,16.0,33,0.00,,,0.00,meteohub,2013-03-10 18:42:00,
2013-03-10 14:47:00,66.4,37.2,29.85,SW,226,7.0,17.0,34,0.00,,,0.00,meteohub,2013-03-10 18:47:00,
2013-03-10 14:52:00,66.6,36.5,29.84,South,187,11.0,17.0,33,0.00,,,0.00,meteohub,2013-03-10 18:52:00,
2013-03-10 14:57:00,66.7,36.7,29.84,SW,233,16.0,18.0,33,0.00,,,0.00,meteohub,2013-03-10 18:57:00,
2013-03-10 15:02:00,66.6,35.8,29.83,SSW,211,11.0,18.0,32,0.00,,,0.00,meteohub,2013-03-10 19:02:00,
2013-03-10 15:07:00,66.6,36.5,29.83,SW,231,1.0,16.0,33,0.00,,,0.00,meteohub,2013-03-10 19:07:00,
2013-03-10 15:12:00,67.1,35.4,29.83,WNW,285,11.0,17.0,31,0.00,,,0.00,meteohub,2013-03-10 19:12:00,
2013-03-10 15:17:00,67.3,34.7,29.82,SSE,163,6.0,17.0,30,0.00,,,0.00,meteohub,2013-03-10 19:17:00,
2013-03-10 15:22:00,67.6,35.1,29.82,SSW,212,12.0,18.0,30,0.00,,,0.00,meteohub,2013-03-10 19:22:00,
2013-03-10 15:27:00,68.0,35.4,29.82,South,184,8.0,18.0,30,0.00,,,0.00,meteohub,2013-03-10 19:27:00,
2013-03-10 15:32:00,68.4,34.9,29.81,SSE,155,5.0,16.0,29,0.00,,,0.00,meteohub,2013-03-10 19:32:00,
2013-03-10 15:37:00,68.5,36.0,29.81,WSW,251,4.0,15.0,30,0.00,,,0.00,meteohub,2013-03-10 19:37:00,
2013-03-10 15:42:00,68.4,34.9,29.80,WSW,248,12.0,16.0,29,0.00,,,0.00,meteohub,2013-03-10 19:42:00,
2013-03-10 15:47:00,68.7,35.2,29.80,ESE,113,1.0,16.0,29,0.00,,,0.00,meteohub,2013-03-10 19:47:00,
2013-03-10 15:52:00,69.3,34.7,29.79,SSE,163,8.0,16.0,28,0.00,,,0.00,meteohub,2013-03-10 19:52:00,
2013-03-10 15:57:00,69.4,34.9,29.79,SSW,202,7.0,15.0,28,0.00,,,0.00,meteohub,2013-03-10 19:57:00,
2013-03-10 16:02:00,69.4,34.0,29.80,SE,132,10.0,13.0,27,0.00,,,0.00,meteohub,2013-03-10 20:02:00,
2013-03-10 16:07:00,69.4,34.0,29.79,WNW,289,11.0,16.0,27,0.00,,,0.00,meteohub,2013-03-10 20:07:00,
2013-03-10 16:12:00,68.9,32.5,29.79,WSW,256,9.0,16.0,26,0.00,,,0.00,meteohub,2013-03-10 20:12:00,
2013-03-10 16:22:00,68.4,32.2,29.80,SSW,211,11.0,15.0,26,0.00,,,0.00,meteohub,2013-03-10 20:22:00,
2013-03-10 16:27:00,68.4,33.1,29.79,South,172,10.0,20.0,27,0.00,,,0.00,meteohub,2013-03-10 20:27:00,
2013-03-10 16:37:00,68.5,34.2,29.80,ENE,59,2.0,14.0,28,0.00,,,0.00,meteohub,2013-03-10 20:37:00,
2013-03-10 16:47:00,68.5,32.4,29.79,SSE,152,11.0,12.0,26,0.00,,,0.00,meteohub,2013-03-10 20:47:00,
2013-03-10 16:57:00,68.9,33.6,29.80,NNW,329,1.0,15.0,27,0.00,,,0.00,meteohub,2013-03-10 20:57:00,
2013-03-10 17:02:00,68.7,33.4,29.80,SSE,166,3.0,15.0,27,0.00,,,0.00,meteohub,2013-03-10 21:02:00,
2013-03-10 17:07:00,68.5,33.3,29.80,South,175,10.0,14.0,27,0.00,,,0.00,meteohub,2013-03-10 21:07:00,
2013-03-10 17:12:00,68.4,34.9,29.80,ESE,112,2.0,14.0,29,0.00,,,0.00,meteohub,2013-03-10 21:12:00,
2013-03-10 17:22:00,68.2,35.6,29.79,SSW,212,4.0,17.0,30,0.00,,,0.00,meteohub,2013-03-10 21:22:00,
2013-03-10 17:27:00,68.2,35.6,29.78,North,1,2.0,13.0,30,0.00,,,0.00,meteohub,2013-03-10 21:27:00,
2013-03-10 17:32:00,68.0,35.4,29.78,WSW,254,2.0,13.0,30,0.00,,,0.00,meteohub,2013-03-10 21:32:00,
2013-03-10 17:37:00,67.8,35.2,29.78,SSE,157,8.0,12.0,30,0.00,,,0.00,meteohub,2013-03-10 21:37:00,
2013-03-10 17:42:00,67.6,35.1,29.77,WNW,282,1.0,12.0,30,0.00,,,0.00,meteohub,2013-03-10 21:42:00,
2013-03-10 17:52:00,67.5,35.8,29.77,WSW,242,3.0,14.0,31,0.00,,,0.00,meteohub,2013-03-10 21:52:00,
2013-03-10 17:57:00,66.6,35.1,29.77,North,8,3.0,14.0,31,0.00,,,0.00,meteohub,2013-03-10 21:57:00,
2013-03-10 18:02:00,66.0,35.2,29.76,SW,227,0.0,10.0,32,0.00,,,0.00,meteohub,2013-03-10 22:02:00,
2013-03-10 18:07:00,65.8,36.0,29.76,ESE,122,3.0,10.0,33,0.00,,,0.00,meteohub,2013-03-10 22:07:00,
2013-03-10 18:17:00,65.1,35.2,29.76,East,96,1.0,9.0,33,0.00,,,0.00,meteohub,2013-03-10 22:17:00,
2013-03-10 18:22:00,65.5,34.9,29.75,SSW,208,1.0,6.0,32,0.00,,,0.00,meteohub,2013-03-10 22:22:00,
2013-03-10 18:27:00,65.8,34.3,29.75,WSW,243,2.0,6.0,31,0.00,,,0.00,meteohub,2013-03-10 22:27:00,
2013-03-10 18:32:00,65.7,34.2,29.75,WSW,242,1.0,9.0,31,0.00,,,0.00,meteohub,2013-03-10 22:32:00,
2013-03-10 18:37:00,64.6,34.0,29.76,WNW,283,2.0,9.0,32,0.00,,,0.00,meteohub,2013-03-10 22:37:00,
2013-03-10 18:47:00,63.1,33.6,29.75,SW,231,0.0,5.0,33,0.00,,,0.00,meteohub,2013-03-10 22:47:00,
2013-03-10 18:52:00,62.6,34.5,29.75,NNE,28,3.0,5.0,35,0.00,,,0.00,meteohub,2013-03-10 22:52:00,
2013-03-10 18:57:00,63.0,34.9,29.75,SSE,165,3.0,4.0,35,0.00,,,0.00,meteohub,2013-03-10 22:57:00,
2013-03-10 19:02:00,62.1,34.9,29.75,SSW,204,5.0,5.0,36,0.00,,,0.00,meteohub,2013-03-10 23:02:00,
2013-03-10 19:07:00,62.1,35.4,29.74,SSW,205,0.0,5.0,37,0.00,,,0.00,meteohub,2013-03-10 23:07:00,
2013-03-10 19:12:00,61.5,34.3,29.74,WNW,293,1.0,5.0,36,0.00,,,0.00,meteohub,2013-03-10 23:12:00,
2013-03-10 19:22:00,61.2,34.7,29.75,West,259,3.0,4.0,37,0.00,,,0.00,meteohub,2013-03-10 23:22:00,
2013-03-10 19:27:00,60.4,35.4,29.75,WSW,256,3.0,5.0,39,0.00,,,0.00,meteohub,2013-03-10 23:27:00,
2013-03-10 19:32:00,60.1,35.1,29.75,SW,215,1.0,5.0,39,0.00,,,0.00,meteohub,2013-03-10 23:32:00,
2013-03-10 19:42:00,59.2,35.4,29.75,ESE,113,1.0,4.0,41,0.00,,,0.00,meteohub,2013-03-10 23:42:00,
2013-03-10 19:47:00,60.1,35.6,29.75,SSW,211,3.0,4.0,40,0.00,,,0.00,meteohub,2013-03-10 23:47:00,
2013-03-10 19:52:00,59.9,34.9,29.75,SW,217,1.0,5.0,39,0.00,,,0.00,meteohub,2013-03-10 23:52:00,
2013-03-10 19:57:00,58.5,35.4,29.75,NE,36,3.0,5.0,42,0.00,,,0.00,meteohub,2013-03-10 23:57:00,
2013-03-10 20:07:00,60.4,36.0,29.75,South,181,0.0,6.0,40,0.00,,,0.00,meteohub,2013-03-11 00:07:00,
2013-03-10 20:12:00,60.3,35.8,29.75,SSE,168,0.0,6.0,40,0.00,,,0.00,meteohub,2013-03-11 00:12:00,
2013-03-10 20:17:00,61.0,35.8,29.74,SSE,165,5.0,6.0,39,0.00,,,0.00,meteohub,2013-03-11 00:17:00,
2013-03-10 20:22:00,61.0,35.8,29.74,ESE,113,3.0,6.0,39,0.00,,,0.00,meteohub,2013-03-11 00:22:00,
2013-03-10 20:27:00,61.5,35.1,29.74,SSW,193,1.0,6.0,37,0.00,,,0.00,meteohub,2013-03-11 00:27:00,
2013-03-10 20:37:00,62.6,34.5,29.74,SE,146,2.0,5.0,35,0.00,,,0.00,meteohub,2013-03-11 00:37:00,
2013-03-10 20:42:00,63.0,34.9,29.74,West,276,2.0,6.0,35,0.00,,,0.00,meteohub,2013-03-11 00:42:00,
2013-03-10 20:47:00,63.1,34.3,29.74,East,80,2.0,6.0,34,0.00,,,0.00,meteohub,2013-03-11 00:47:00,
2013-03-10 20:57:00,63.3,35.2,29.73,SSE,152,0.0,7.0,35,0.00,,,0.00,meteohub,2013-03-11 00:57:00,
2013-03-10 21:02:00,63.3,35.2,29.73,West,277,1.0,7.0,35,0.00,,,0.00,meteohub,2013-03-11 01:02:00,
2013-03-10 21:07:00,62.8,35.4,29.73,WSW,258,4.0,5.0,36,0.00,,,0.00,meteohub,2013-03-11 01:07:00,
2013-03-10 21:17:00,63.5,36.7,29.74,SSW,208,2.0,6.0,37,0.00,,,0.00,meteohub,2013-03-11 01:17:00,
2013-03-10 21:22:00,63.0,35.6,29.74,NNE,27,3.0,6.0,36,0.00,,,0.00,meteohub,2013-03-11 01:22:00,
2013-03-10 21:32:00,62.4,35.1,29.73,SW,226,0.0,7.0,36,0.00,,,0.00,meteohub,2013-03-11 01:32:00,
2013-03-10 21:37:00,61.0,35.2,29.73,SSE,162,3.0,7.0,38,0.00,,,0.00,meteohub,2013-03-11 01:37:00,
2013-03-10 21:42:00,61.9,35.2,29.73,SE,134,4.0,7.0,37,0.00,,,0.00,meteohub,2013-03-11 01:42:00,
2013-03-10 21:47:00,61.9,36.0,29.73,SW,214,0.0,6.0,38,0.00,,,0.00,meteohub,2013-03-11 01:47:00,
2013-03-10 21:52:00,60.4,35.4,29.73,WSW,245,1.0,6.0,39,0.00,,,0.00,meteohub,2013-03-11 01:52:00,
2013-03-10 21:57:00,60.6,34.9,29.74,West,276,1.0,5.0,38,0.00,,,0.00,meteohub,2013-03-11 01:57:00,
2013-03-10 22:07:00,61.5,35.1,29.75,SSE,149,0.0,5.0,37,0.00,,,0.00,meteohub,2013-03-11 02:07:00,
2013-03-10 22:12:00,61.9,35.2,29.75,SSW,205,2.0,5.0,37,0.00,,,0.00,meteohub,2013-03-11 02:12:00,
2013-03-10 22:22:00,59.7,37.2,29.75,SE,146,1.0,5.0,43,0.00,,,0.00,meteohub,2013-03-11 02:22:00,
2013-03-10 22:27:00,58.8,39.2,29.76,WNW,301,3.0,5.0,48,0.00,,,0.00,meteohub,2013-03-11 02:27:00,
2013-03-10 22:32:00,60.1,40.3,29.77,SSE,155,2.0,6.0,48,0.00,,,0.00,meteohub,2013-03-11 02:32:00,
2013-03-10 22:37:00,60.1,43.0,29.77,SE,124,1.0,9.0,53,0.01,,,0.01,meteohub,2013-03-11 02:37:00,
2013-03-10 22:42:00,58.6,41.0,29.77,WSW,257,1.0,9.0,52,0.01,,,0.01,meteohub,2013-03-11 02:42:00,
2013-03-10 22:47:00,57.9,42.3,29.76,ESE,115,1.0,9.0,56,0.01,,,0.01,meteohub,2013-03-11 02:47:00,
2013-03-10 22:52:00,56.3,42.1,29.77,SW,215,0.0,5.0,59,0.01,,,0.01,meteohub,2013-03-11 02:52:00,
2013-03-10 22:57:00,54.3,41.5,29.77,South,181,1.0,5.0,62,0.01,,,0.01,meteohub,2013-03-11 02:57:00,
2013-03-10 23:02:00,53.8,44.6,29.78,South,175,0.0,4.0,71,0.01,,,0.01,meteohub,2013-03-11 03:02:00,
2013-03-10 23:07:00,53.4,45.0,29.77,SE,126,1.0,4.0,73,0.02,,,0.02,meteohub,2013-03-11 03:07:00,
2013-03-10 23:12:00,54.1,45.7,29.77,NNE,25,3.0,5.0,73,0.02,,,0.02,meteohub,2013-03-11 03:12:00,
2013-03-10 23:17:00,54.3,46.6,29.77,SSE,152,1.0,6.0,75,0.02,,,0.02,meteohub,2013-03-11 03:17:00,
2013-03-10 23:27:00,55.9,43.9,29.77,SE,142,0.0,7.0,64,0.02,,,0.02,meteohub,2013-03-11 03:27:00,
2013-03-10 23:32:00,57.0,43.7,29.77,SW,230,3.0,7.0,61,0.02,,,0.02,meteohub,2013-03-11 03:32:00,
2013-03-10 23:37:00,57.7,44.4,29.77,SE,136,0.0,7.0,61,0.01,,,0.02,meteohub,2013-03-11 03:37:00,
2013-03-10 23:42:00,57.7,43.9,29.76,ESE,105,2.0,7.0,60,0.01,,,0.02,meteohub,2013-03-11 03:42:00,
2013-03-10 23:47:00,57.6,44.2,29.76,ESE,102,1.0,7.0,61,0.02,,,0.03,meteohub,2013-03-11 03:47:00,
2013-03-10 23:52:00,57.2,44.2,29.76,East,91,2.0,4.0,62,0.02,,,0.03,meteohub,2013-03-11 03:52:00,
2013-03-10 23:57:00,56.5,44.1,29.77,SW,232,2.0,4.0,63,0.02,,,0.03,meteohub,2013-03-11 03:57:00,